Ana Sayfa
METAR-TAF:

METAR-TAF

Havaalanları :

Beaver Island Airport

Beaver Island, Michigan, Amerika Birleşik Devletleri

Enlem: 45-41-32N, Boylam: 085-33-59W, yükseklik: 204 m

Güncel hava durumu gözlemi

Rapor saat 05:56 UTC de 18 dakika önce yapıldı.
Rüzgar güneybatıdan 21 kt ve 28 kt'a kadar ani rüzgarlar
Sıcaklık 0°C
Nem 74%
Basınç 1020 hPa
Görüş mesafesi: 16.1 km
2100 ft yükseklikte parçalı bulutlu

METAR: KSJX 220556Z AUTO 23021G28KT 10SM SCT021 00/M04 A3012 RMK AO2 T00001041 10000 21013 400001050

Saat: 01:14 (06:14 UTC)


TAF: eksik

4.000'den fazla havaalanı için hava durumu gözlemleri ve tahminleri (METAR ve TAF raporları).

Kullanılabilir istasyonlar harita üzerinde sarı ve kırmızı noktalarla gösterilir.

İstasyonun adını görmek için fareyi noktanın üzerinde gezdirin.

Sonrasında hava gözlem ve tahminlerini görmek için tıklayın.

Haritayı değiştirmek için: yaklaştırmak için siyah artı işaretli yeşil düğmeye ve uzaklaştırmak için de eksi işaretli düğmeye hızla tıklayın; bitişik haritalar için yeşil okları kullanın.


METAR-TAF: